createdAt,value
2018-07-25T00:01:46.881Z,8.08
2018-07-25T00:04:15.111Z,5.33
2018-07-25T00:06:43.336Z,6.25
2018-07-25T00:09:11.893Z,6.60
2018-07-25T00:11:40.173Z,6.53
2018-07-25T00:14:08.407Z,5.95
2018-07-25T00:16:36.764Z,7.67
2018-07-25T00:19:05.087Z,4.95
2018-07-25T00:21:33.430Z,7.20
2018-07-25T00:24:01.636Z,10.32
2018-07-25T00:26:29.890Z,6.90
2018-07-25T00:28:58.135Z,5.42
2018-07-25T00:31:26.387Z,9.93
2018-07-25T00:33:54.596Z,5.83
2018-07-25T00:36:22.992Z,6.67
2018-07-25T00:38:51.178Z,7.20
2018-07-25T00:41:19.421Z,6.67
2018-07-25T00:43:47.675Z,7.72
2018-07-25T00:46:15.915Z,6.45
2018-07-25T00:48:44.219Z,9.83
2018-07-25T00:51:13.005Z,7.87
2018-07-25T00:53:41.277Z,9.03
2018-07-25T00:56:09.559Z,8.68
2018-07-25T00:58:37.820Z,6.08
2018-07-25T01:01:06.042Z,9.58
2018-07-25T01:03:34.289Z,8.90
2018-07-25T01:06:02.859Z,13.00
2018-07-25T01:08:31.106Z,9.98
2018-07-25T01:10:59.318Z,8.50
2018-07-25T01:13:27.576Z,7.53
2018-07-25T01:15:55.871Z,7.08
2018-07-25T01:18:24.206Z,13.05
2018-07-25T01:20:52.458Z,9.13
2018-07-25T01:23:20.906Z,9.30
2018-07-25T01:25:49.143Z,10.15
2018-07-25T01:28:17.381Z,13.78
2018-07-25T01:30:45.612Z,13.68
2018-07-25T01:33:13.855Z,11.85
2018-07-25T01:35:42.114Z,9.35
2018-07-25T01:38:11.082Z,9.00
2018-07-25T01:40:39.310Z,13.35
2018-07-25T01:43:07.549Z,11.70
2018-07-25T01:45:35.785Z,11.08
2018-07-25T01:48:04.057Z,11.50
2018-07-25T01:50:32.308Z,10.20
2018-07-25T01:53:00.554Z,10.48
2018-07-25T01:55:28.834Z,9.18
2018-07-25T01:57:57.077Z,9.45
2018-07-25T02:00:25.337Z,9.08
2018-07-25T02:02:53.613Z,10.15
2018-07-25T02:05:22.126Z,9.25
2018-07-25T02:07:50.480Z,11.18
2018-07-25T02:10:18.714Z,10.63
2018-07-25T02:12:46.973Z,10.90
2018-07-25T02:15:15.273Z,12.03
2018-07-25T02:17:43.501Z,9.35
2018-07-25T02:20:11.782Z,8.13
2018-07-25T02:22:39.992Z,7.12
2018-07-25T02:25:08.220Z,9.00
2018-07-25T02:27:36.470Z,11.90
2018-07-25T02:30:05.234Z,10.75
2018-07-25T02:32:33.473Z,10.05
2018-07-25T02:35:01.737Z,11.80
2018-07-25T02:37:29.973Z,10.90
2018-07-25T02:39:58.222Z,10.78
2018-07-25T02:42:26.562Z,9.70
2018-07-25T02:44:54.728Z,9.40
2018-07-25T02:47:22.994Z,13.48
2018-07-25T02:49:51.244Z,11.80
2018-07-25T02:52:19.688Z,11.18
2018-07-25T02:54:47.961Z,13.60
2018-07-25T02:57:16.231Z,10.93
2018-07-25T02:59:44.481Z,9.30
2018-07-25T03:02:13.335Z,12.00
2018-07-25T03:04:41.605Z,10.85
2018-07-25T03:07:09.854Z,9.25
2018-07-25T03:09:38.096Z,8.43
2018-07-25T03:12:06.371Z,10.85
2018-07-25T03:14:34.609Z,10.93
2018-07-25T03:17:02.855Z,8.48
2018-07-25T03:19:31.278Z,10.25
2018-07-25T03:21:59.508Z,8.95
2018-07-25T03:24:27.782Z,11.03
2018-07-25T03:26:56.021Z,6.20
2018-07-25T03:29:24.265Z,12.55
2018-07-25T03:31:52.510Z,10.63
2018-07-25T03:34:20.493Z,9.23
2018-07-25T03:36:48.772Z,10.45
2018-07-25T03:39:17.378Z,8.78
2018-07-25T03:41:45.620Z,7.83
2018-07-25T03:44:13.614Z,9.53
2018-07-25T03:46:42.244Z,9.80
2018-07-25T03:49:10.473Z,8.50
2018-07-25T03:51:38.714Z,9.43
2018-07-25T03:54:06.986Z,11.48
2018-07-25T03:56:35.416Z,8.00
2018-07-25T03:59:03.650Z,7.10
2018-07-25T04:01:31.895Z,7.67
2018-07-25T04:04:00.140Z,7.15
2018-07-25T04:06:28.372Z,8.08
2018-07-25T04:08:56.604Z,8.20
2018-07-25T04:11:24.862Z,4.90
2018-07-25T04:13:53.089Z,5.25
2018-07-25T04:16:21.308Z,9.00
2018-07-25T04:18:49.898Z,5.25
2018-07-25T04:21:18.139Z,9.80
2018-07-25T04:23:46.378Z,7.30
2018-07-25T04:26:14.754Z,5.17
2018-07-25T04:28:42.981Z,5.25
2018-07-25T04:31:11.589Z,5.30
2018-07-25T04:33:39.825Z,4.60
2018-07-25T04:36:08.051Z,4.05
2018-07-25T04:38:36.278Z,7.42
2018-07-25T04:41:04.793Z,7.67
2018-07-25T04:43:33.072Z,4.60
2018-07-25T04:46:01.343Z,8.73
2018-07-25T04:48:29.619Z,7.78
2018-07-25T04:50:57.898Z,6.40
2018-07-25T04:53:26.121Z,7.60
2018-07-25T04:55:54.385Z,8.43
2018-07-25T04:58:22.634Z,7.87
2018-07-25T05:00:50.873Z,6.97
2018-07-25T05:03:19.274Z,7.62
2018-07-25T05:05:47.636Z,8.60
2018-07-25T05:08:15.885Z,8.23
2018-07-25T05:10:44.174Z,7.35
2018-07-25T05:13:13.053Z,7.58
2018-07-25T05:15:41.277Z,6.95
2018-07-25T05:18:09.525Z,6.17
2018-07-25T05:20:37.822Z,8.00
2018-07-25T05:23:06.102Z,5.67
2018-07-25T05:25:34.576Z,5.40
2018-07-25T05:28:02.853Z,7.30
2018-07-25T05:30:31.112Z,6.55
2018-07-25T05:32:59.777Z,8.58
2018-07-25T05:35:28.017Z,8.70
2018-07-25T05:37:56.367Z,13.03
2018-07-25T05:40:24.664Z,6.22
2018-07-25T05:42:53.354Z,6.17
2018-07-25T05:45:21.616Z,5.53
2018-07-25T05:47:49.948Z,7.47
2018-07-25T05:50:18.185Z,7.30
2018-07-25T05:52:46.429Z,7.58
2018-07-25T05:55:14.702Z,5.40
2018-07-25T05:57:42.920Z,4.30
2018-07-25T06:00:11.207Z,5.40
2018-07-25T06:02:39.446Z,6.67
2018-07-25T06:05:07.676Z,6.97
2018-07-25T06:07:35.636Z,5.80
2018-07-25T06:10:03.960Z,6.12
2018-07-25T06:12:32.252Z,4.97
2018-07-25T06:15:00.484Z,4.70
2018-07-25T06:17:28.705Z,7.42
2018-07-25T06:19:56.922Z,8.70
2018-07-25T06:22:25.220Z,5.42
2018-07-25T06:24:53.523Z,6.05
2018-07-25T06:27:21.747Z,5.80
2018-07-25T06:29:49.736Z,4.70
2018-07-25T06:32:18.068Z,8.45
2018-07-25T06:34:46.326Z,4.83
2018-07-25T06:37:14.586Z,7.72
2018-07-25T06:39:42.839Z,8.00
2018-07-25T06:42:11.113Z,7.58
2018-07-25T06:44:39.405Z,6.78
2018-07-25T06:47:07.714Z,6.72
2018-07-25T06:49:35.967Z,5.45
2018-07-25T06:52:04.258Z,5.67
2018-07-25T06:54:32.608Z,5.17
2018-07-25T06:57:00.860Z,4.00
2018-07-25T06:59:29.121Z,5.45
2018-07-25T07:01:57.705Z,7.17
2018-07-25T07:04:25.985Z,4.80
2018-07-25T07:06:54.352Z,4.95
2018-07-25T07:09:22.572Z,4.47
2018-07-25T07:11:50.818Z,6.35
2018-07-25T07:14:19.074Z,6.92
2018-07-25T07:16:47.376Z,5.30
2018-07-25T07:19:15.601Z,7.60
2018-07-25T07:21:43.851Z,9.60
2018-07-25T07:24:12.860Z,4.28
2018-07-25T07:26:47.815Z,4.92
2018-07-25T07:29:16.117Z,6.00
2018-07-25T07:31:44.375Z,7.50
2018-07-25T07:34:13.271Z,5.15
2018-07-25T07:36:41.540Z,7.30
2018-07-25T07:39:12.228Z,7.12
2018-07-25T07:41:40.574Z,6.33
2018-07-25T07:44:08.852Z,6.78
2018-07-25T07:46:37.509Z,6.45
2018-07-25T07:49:05.952Z,8.60
2018-07-25T07:51:34.254Z,12.33
2018-07-25T07:54:02.544Z,10.75
2018-07-25T07:56:30.791Z,9.98
2018-07-25T07:58:59.158Z,12.88
2018-07-25T08:01:27.396Z,15.05
2018-07-25T08:03:55.647Z,13.43
2018-07-25T08:06:24.253Z,14.03
2018-07-25T08:08:52.241Z,12.55
2018-07-25T08:11:21.347Z,14.95
2018-07-25T08:13:50.413Z,13.40
2018-07-25T08:16:19.190Z,13.13
2018-07-25T08:18:47.510Z,11.97
2018-07-25T08:21:15.849Z,15.05
2018-07-25T08:23:44.465Z,11.30
2018-07-25T08:26:13.430Z,16.82
2018-07-25T08:28:41.670Z,15.68
2018-07-25T08:31:09.956Z,13.28
2018-07-25T08:33:38.211Z,15.00
2018-07-25T08:36:06.615Z,9.25
2018-07-25T08:38:39.262Z,9.43
2018-07-25T08:41:07.732Z,10.40
2018-07-25T08:43:37.240Z,7.47
2018-07-25T08:46:06.954Z,12.63
2018-07-25T08:48:35.232Z,16.87
2018-07-25T08:51:03.694Z,16.97
2018-07-25T08:53:32.720Z,12.53
2018-07-25T08:56:01.078Z,12.60
2018-07-25T08:58:29.762Z,10.40
2018-07-25T09:00:58.457Z,7.83
2018-07-25T09:03:26.722Z,8.43
2018-07-25T09:05:55.005Z,8.20
2018-07-25T09:08:23.283Z,10.93
2018-07-25T09:10:51.583Z,11.05
2018-07-25T09:13:19.975Z,10.35
2018-07-25T09:15:48.252Z,9.40
2018-07-25T09:18:16.521Z,9.83
2018-07-25T09:20:44.855Z,8.23
2018-07-25T09:23:12.826Z,11.48
2018-07-25T09:25:41.271Z,11.60
2018-07-25T09:28:09.468Z,10.65
2018-07-25T09:30:37.770Z,11.95
2018-07-25T09:33:06.103Z,11.12
2018-07-25T09:35:34.379Z,15.63
2018-07-25T09:38:02.662Z,12.65
2018-07-25T09:40:31.014Z,13.00
2018-07-25T09:42:59.301Z,13.03
2018-07-25T09:45:27.738Z,16.02
2018-07-25T09:47:55.896Z,11.90
2018-07-25T09:50:24.173Z,14.63
2018-07-25T09:52:52.592Z,14.68
2018-07-25T09:55:20.870Z,10.68
2018-07-25T09:57:49.156Z,13.48
2018-07-25T10:00:50.024Z,15.45
2018-07-25T10:03:18.943Z,12.50
2018-07-25T10:05:47.310Z,12.25
2018-07-25T10:08:16.560Z,12.25
2018-07-25T10:10:45.222Z,14.53
2018-07-25T10:13:13.605Z,13.25
2018-07-25T10:15:41.897Z,13.30
2018-07-25T10:18:10.188Z,12.53
2018-07-25T10:20:38.533Z,11.73
2018-07-25T10:23:06.931Z,11.50
2018-07-25T10:25:34.950Z,14.58
2018-07-25T10:28:03.242Z,17.32
2018-07-25T10:30:31.546Z,13.72
2018-07-25T10:32:59.853Z,10.43
2018-07-25T10:35:28.113Z,9.35
2018-07-25T10:37:56.409Z,9.33
2018-07-25T10:40:24.701Z,12.55
2018-07-25T10:42:53.043Z,8.00
2018-07-25T10:45:21.336Z,10.08
2018-07-25T10:47:49.613Z,9.35
2018-07-25T10:50:17.917Z,8.00
2018-07-25T10:52:46.224Z,10.55
2018-07-25T10:55:14.587Z,12.82
2018-07-25T10:57:42.915Z,13.75
2018-07-25T11:00:11.235Z,6.78
2018-07-25T11:02:39.574Z,8.80
2018-07-25T11:05:08.054Z,9.88
2018-07-25T11:07:36.335Z,8.55
2018-07-25T11:10:05.547Z,9.40
2018-07-25T11:12:33.845Z,10.78
2018-07-25T11:15:02.460Z,12.73
2018-07-25T11:17:30.819Z,11.55
2018-07-25T11:19:59.091Z,9.20
2018-07-25T11:22:27.367Z,9.10
2018-07-25T11:24:55.686Z,6.58
2018-07-25T11:27:23.690Z,6.80
2018-07-25T11:29:51.990Z,11.88
2018-07-25T11:32:20.244Z,9.35
2018-07-25T11:34:48.533Z,5.40
2018-07-25T11:37:16.830Z,5.65
2018-07-25T11:39:45.623Z,4.55
2018-07-25T11:42:13.987Z,4.67
2018-07-25T11:44:42.279Z,10.08
2018-07-25T11:47:12.138Z,5.72
2018-07-25T11:49:40.517Z,7.10
2018-07-25T11:52:08.835Z,7.95
2018-07-25T11:54:37.114Z,6.83
2018-07-25T11:57:05.476Z,7.62
2018-07-25T11:59:33.975Z,5.03
2018-07-25T12:02:02.256Z,4.35
2018-07-25T12:04:30.548Z,6.95
2018-07-25T12:09:26.979Z,4.58
2018-07-25T12:11:55.269Z,5.80
2018-07-25T12:14:23.594Z,7.70
2018-07-25T12:16:52.222Z,3.47
2018-07-25T12:19:20.514Z,5.00
2018-07-25T12:21:48.803Z,9.50
2018-07-25T12:24:17.095Z,8.85
2018-07-25T12:26:45.388Z,7.55
2018-07-25T12:29:13.664Z,11.33
2018-07-25T12:31:41.954Z,3.52
2018-07-25T12:34:10.542Z,5.03
2018-07-25T12:36:38.891Z,4.47
2018-07-25T12:39:08.674Z,6.55
2018-07-25T12:41:37.009Z,4.58
2018-07-25T12:44:05.675Z,5.22
2018-07-25T12:46:33.960Z,6.60
2018-07-25T12:49:02.271Z,17.15
2018-07-25T12:51:30.843Z,8.80
2018-07-25T12:53:59.151Z,6.70
2018-07-25T12:56:27.446Z,6.05
2018-07-25T12:58:55.812Z,8.25
2018-07-25T13:01:24.107Z,7.30
2018-07-25T13:03:52.414Z,8.70
2018-07-25T13:06:20.734Z,8.30
2018-07-25T13:08:49.049Z,5.72
2018-07-25T13:11:17.391Z,7.95
2018-07-25T13:13:45.694Z,7.08
2018-07-25T13:16:14.168Z,12.98
2018-07-25T13:18:42.457Z,7.95
2018-07-25T13:21:10.756Z,7.33
2018-07-25T13:23:39.093Z,5.83
2018-07-25T13:26:07.455Z,9.08
2018-07-25T13:28:35.835Z,10.75
2018-07-25T13:31:04.216Z,9.15
2018-07-25T13:33:32.566Z,9.35
2018-07-25T13:36:00.915Z,10.65
2018-07-25T13:38:29.466Z,8.18
2018-07-25T13:40:57.744Z,7.65
2018-07-25T13:43:26.445Z,9.15
2018-07-25T13:45:54.804Z,7.17
2018-07-25T13:48:23.090Z,13.45
2018-07-25T13:50:51.447Z,10.63
2018-07-25T13:53:19.751Z,7.45
2018-07-25T13:55:48.098Z,5.22
2018-07-25T13:58:16.481Z,6.65
2018-07-25T14:00:51.087Z,5.08
2018-07-25T14:03:19.406Z,3.00
2018-07-25T14:05:47.733Z,4.58
2018-07-25T14:08:16.437Z,7.85
2018-07-25T14:10:44.740Z,7.05
2018-07-25T14:13:13.097Z,6.17
2018-07-25T14:15:41.421Z,5.87
2018-07-25T14:18:09.762Z,3.27
2018-07-25T14:20:37.998Z,5.28
2018-07-25T14:23:06.435Z,3.42
2018-07-25T14:25:34.849Z,4.12
2018-07-25T14:28:03.271Z,2.87
2018-07-25T14:30:31.612Z,6.35
2018-07-25T14:32:59.991Z,4.67
2018-07-25T14:35:28.311Z,2.20
2018-07-25T14:37:56.638Z,3.15
2018-07-25T14:40:25.202Z,3.75
2018-07-25T14:42:53.570Z,3.72
2018-07-25T14:45:21.931Z,2.00
2018-07-25T14:47:50.252Z,3.02
2018-07-25T14:50:18.591Z,4.75
2018-07-25T14:52:46.939Z,3.47
2018-07-25T14:55:15.300Z,2.80
2018-07-25T14:57:43.715Z,2.60
2018-07-25T15:00:12.143Z,2.85
2018-07-25T15:02:40.541Z,2.50
2018-07-25T15:05:08.798Z,3.50
2018-07-25T15:07:37.132Z,3.60
2018-07-25T15:10:06.478Z,2.85
2018-07-25T15:12:41.198Z,8.50
2018-07-25T15:15:10.720Z,4.80
2018-07-25T15:17:39.031Z,4.97
2018-07-25T15:20:08.105Z,7.22
2018-07-25T15:22:36.385Z,5.30
2018-07-25T15:25:04.942Z,4.70
2018-07-25T15:27:33.218Z,3.50
2018-07-25T15:30:01.559Z,4.50
2018-07-25T15:32:29.909Z,5.72
2018-07-25T15:34:58.412Z,5.10
2018-07-25T15:37:26.707Z,4.33
2018-07-25T15:39:55.021Z,5.42
2018-07-25T15:42:23.677Z,3.83
2018-07-25T15:44:52.216Z,4.22
2018-07-25T15:47:20.587Z,6.72
2018-07-25T15:49:48.936Z,4.12
2018-07-25T15:52:17.261Z,4.37
2018-07-25T15:54:45.603Z,6.97
2018-07-25T15:57:13.912Z,3.70
2018-07-25T15:59:42.287Z,6.78
2018-07-25T16:02:10.645Z,7.55
2018-07-25T16:04:39.042Z,5.20
2018-07-25T16:07:07.346Z,3.87
2018-07-25T16:09:35.648Z,5.70
2018-07-25T16:12:03.964Z,3.15
2018-07-25T16:14:32.289Z,7.00
2018-07-25T16:17:00.885Z,6.53
2018-07-25T16:19:29.166Z,5.65
2018-07-25T16:21:57.666Z,6.87
2018-07-25T16:24:25.952Z,5.90
2018-07-25T16:26:54.300Z,5.92
2018-07-25T16:29:22.673Z,4.33
2018-07-25T16:31:51.029Z,6.05
2018-07-25T16:34:19.373Z,4.70
2018-07-25T16:36:47.709Z,4.22
2018-07-25T16:39:17.682Z,6.20
2018-07-25T16:41:46.071Z,3.80
2018-07-25T16:44:14.797Z,4.28
2018-07-25T16:46:43.094Z,5.03
2018-07-25T16:49:11.396Z,8.60
2018-07-25T16:51:39.745Z,5.85
2018-07-25T16:54:08.009Z,4.03
2018-07-25T16:56:36.344Z,5.87
2018-07-25T16:59:04.628Z,4.45
2018-07-25T17:01:32.950Z,9.53
2018-07-25T17:04:01.204Z,4.83
2018-07-25T17:06:29.489Z,3.87
2018-07-25T17:08:57.761Z,5.03
2018-07-25T17:11:26.033Z,3.40
2018-07-25T17:13:54.482Z,4.37
2018-07-25T17:16:22.738Z,5.20
2018-07-25T17:18:51.054Z,4.42
2018-07-25T17:21:19.361Z,4.90
2018-07-25T17:23:47.623Z,3.92
2018-07-25T17:26:15.917Z,3.95
2018-07-25T17:28:44.221Z,4.60
2018-07-25T17:31:12.795Z,10.43
2018-07-25T17:33:41.057Z,7.97
2018-07-25T17:36:09.382Z,5.17
2018-07-25T17:38:37.690Z,6.95
2018-07-25T17:41:06.009Z,5.33
2018-07-25T17:43:34.302Z,4.45
2018-07-25T17:46:02.621Z,6.78
2018-07-25T17:48:31.112Z,6.05
2018-07-25T17:50:59.492Z,5.25
2018-07-25T17:53:27.902Z,4.55
2018-07-25T17:55:56.170Z,6.25
2018-07-25T17:58:24.685Z,7.78
2018-07-25T18:00:52.984Z,6.50
2018-07-25T18:03:21.260Z,6.25
2018-07-25T18:05:49.572Z,6.15
2018-07-25T18:08:17.924Z,7.30
2018-07-25T18:10:46.218Z,5.50
2018-07-25T18:13:19.764Z,6.97
2018-07-25T18:15:48.165Z,9.50
2018-07-25T18:18:16.444Z,8.73
2018-07-25T18:20:44.746Z,10.53
2018-07-25T18:23:13.059Z,6.33
2018-07-25T18:25:41.337Z,6.83
2018-07-25T18:28:09.702Z,9.85
2018-07-25T18:30:37.999Z,8.95
2018-07-25T18:33:06.294Z,5.62
2018-07-25T18:35:34.642Z,6.15
2018-07-25T18:38:02.744Z,9.60
2018-07-25T18:40:31.039Z,9.53
2018-07-25T18:42:59.302Z,8.25
2018-07-25T18:45:27.561Z,5.75
2018-07-25T18:47:55.863Z,7.55
2018-07-25T18:50:24.197Z,5.30
2018-07-25T18:52:52.470Z,7.45
2018-07-25T18:55:20.854Z,7.58
2018-07-25T18:57:49.142Z,8.38
2018-07-25T19:00:17.481Z,5.50
2018-07-25T19:02:45.843Z,8.08
2018-07-25T19:05:14.143Z,6.33
2018-07-25T19:07:42.390Z,8.85
2018-07-25T19:10:10.700Z,8.63
2018-07-25T19:12:38.972Z,9.60
2018-07-25T19:15:12.726Z,8.95
2018-07-25T19:17:40.986Z,9.08
2018-07-25T19:20:09.316Z,7.58
2018-07-25T19:22:37.598Z,5.42
2018-07-25T19:25:05.885Z,7.10
2018-07-25T19:27:34.173Z,10.53
2018-07-25T19:30:02.529Z,6.90
2018-07-25T19:32:30.781Z,6.47
2018-07-25T19:34:59.069Z,11.28
2018-07-25T19:37:27.353Z,5.95
2018-07-25T19:39:55.621Z,8.78
2018-07-25T19:42:24.577Z,6.90
2018-07-25T19:44:52.863Z,6.70
2018-07-25T19:47:21.137Z,7.70
2018-07-25T19:49:49.409Z,7.03
2018-07-25T19:52:17.663Z,10.15
2018-07-25T19:54:45.922Z,9.28
2018-07-25T19:57:14.245Z,7.55
2018-07-25T19:59:42.489Z,5.87
2018-07-25T20:02:11.817Z,8.35
2018-07-25T20:04:40.069Z,5.67
2018-07-25T20:07:08.331Z,8.78
2018-07-25T20:09:36.653Z,7.28
2018-07-25T20:12:04.700Z,8.95
2018-07-25T20:14:38.383Z,10.10
2018-07-25T20:17:06.790Z,7.15
2018-07-25T20:19:35.291Z,6.05
2018-07-25T20:22:03.526Z,7.67
2018-07-25T20:24:31.794Z,6.15
2018-07-25T20:27:00.074Z,7.45
2018-07-25T20:29:28.373Z,5.80
2018-07-25T20:31:56.620Z,8.80
2018-07-25T20:34:24.903Z,6.97
2018-07-25T20:36:53.196Z,7.50
2018-07-25T20:39:21.468Z,6.80
2018-07-25T20:41:49.739Z,6.50
2018-07-25T20:44:18.090Z,6.78
2018-07-25T20:46:46.902Z,10.48
2018-07-25T20:49:15.192Z,5.90
2018-07-25T20:51:43.449Z,8.50
2018-07-25T20:54:11.918Z,8.25
2018-07-25T20:56:40.194Z,8.15
2018-07-25T20:59:08.473Z,7.35
2018-07-25T21:01:36.753Z,8.23
2018-07-25T21:04:05.206Z,8.38
2018-07-25T21:06:33.524Z,6.00
2018-07-25T21:09:01.822Z,6.58
2018-07-25T21:11:30.174Z,5.95
2018-07-25T21:13:58.438Z,11.85
2018-07-25T21:16:26.716Z,5.00
2018-07-25T21:18:54.938Z,6.92
2018-07-25T21:21:23.308Z,9.98
2018-07-25T21:23:51.618Z,6.90
2018-07-25T21:26:19.901Z,9.18
2018-07-25T21:28:48.161Z,8.68
2018-07-25T21:31:16.444Z,5.90
2018-07-25T21:33:44.713Z,10.40
2018-07-25T21:36:13.013Z,7.03
2018-07-25T21:38:41.277Z,5.33
2018-07-25T21:41:09.552Z,7.25
2018-07-25T21:43:37.824Z,7.53
2018-07-25T21:46:06.618Z,6.55
2018-07-25T21:48:34.894Z,5.87
2018-07-25T21:51:03.231Z,12.03
2018-07-25T21:53:31.506Z,4.80
2018-07-25T21:55:59.753Z,6.70
2018-07-25T21:58:28.047Z,7.33
2018-07-25T22:01:00.195Z,8.13
2018-07-25T22:03:28.458Z,6.97
2018-07-25T22:05:56.753Z,10.35
2018-07-25T22:08:25.094Z,6.83
2018-07-25T22:10:53.333Z,9.08
2018-07-25T22:13:21.575Z,12.78
2018-07-25T22:15:49.873Z,7.90
2018-07-25T22:18:18.122Z,9.28
2018-07-25T22:20:46.423Z,8.23
2018-07-25T22:23:14.673Z,8.83
2018-07-25T22:25:42.921Z,6.05
2018-07-25T22:28:11.196Z,8.85
2018-07-25T22:30:39.453Z,7.17
2018-07-25T22:33:07.754Z,7.75
2018-07-25T22:35:36.034Z,9.25
2018-07-25T22:38:04.315Z,10.72
2018-07-25T22:40:32.593Z,10.35
2018-07-25T22:43:00.981Z,7.35
2018-07-25T22:45:29.272Z,9.65
2018-07-25T22:47:57.522Z,7.45
2018-07-25T22:50:25.798Z,8.13
2018-07-25T22:52:54.068Z,7.28
2018-07-25T22:55:22.354Z,15.05
2018-07-25T22:57:50.685Z,10.20
2018-07-25T23:00:18.935Z,6.85
2018-07-25T23:02:47.206Z,7.97
2018-07-25T23:05:15.480Z,8.25
2018-07-25T23:07:43.737Z,8.50
2018-07-25T23:10:12.242Z,7.25
2018-07-25T23:12:40.492Z,9.48
2018-07-25T23:15:08.779Z,9.65
2018-07-25T23:17:37.053Z,9.53
2018-07-25T23:20:05.363Z,11.93
2018-07-25T23:22:38.896Z,9.33
2018-07-25T23:25:07.163Z,8.98
2018-07-25T23:27:35.409Z,7.35
2018-07-25T23:30:03.730Z,6.95
2018-07-25T23:32:32.267Z,8.90
2018-07-25T23:35:06.690Z,8.75
2018-07-25T23:37:34.987Z,10.93
2018-07-25T23:40:04.127Z,8.00
2018-07-25T23:42:32.379Z,7.67
2018-07-25T23:45:00.610Z,8.90
2018-07-25T23:47:29.146Z,8.50
2018-07-25T23:49:57.457Z,6.92
2018-07-25T23:52:25.707Z,6.40
2018-07-25T23:54:54.038Z,5.72
2018-07-25T23:57:22.683Z,8.48
2018-07-25T23:59:50.963Z,5.62
